Time;durP1;ratioP1;P1;durP2;ratioP2;P2;SDS_P1;SDS_P2;PMS_P1;PMS_P2;Temp;Humidity;BMP_temperature;BMP_pressure;BME280_temperature;BME280_humidity;BME280_pressure;Samples;Min_cycle;Max_cycle;Signal;HPM_P1;HPM_P2
2022/04/06 00:00:13;;;;;;;;;17.67;14.00;;;;;7.86;86.64;98992.97;6282718;20;3553452;-59
2022/04/06 00:02:42;;;;;;;;;15.67;14.33;;;;;7.62;87.58;98990.84;6315655;20;3553425;-59
2022/04/06 00:05:13;;;;;;;;;17.00;14.00;;;;;7.44;88.44;98989.28;6313867;20;2796126;-59
2022/04/06 00:07:43;;;;;;;;;18.50;18.50;;;;;6.94;90.32;98985.13;6285506;20;2821104;-59
2022/04/06 00:10:13;;;;;;;;;14.33;14.33;;;;;6.89;91.19;98990.72;6280596;20;3535689;-59
2022/04/06 00:12:42;;;;;;;;;12.67;12.67;;;;;7.12;90.61;98989.41;6316456;20;3526330;-59
2022/04/06 00:15:12;;;;;;;;;17.00;17.00;;;;;6.95;91.28;98992.19;6313622;20;3564822;-59
2022/04/06 00:17:41;;;;;;;;;13.00;13.00;;;;;6.95;90.99;98993.06;6315543;20;3538799;-60
2022/04/06 00:20:10;;;;;;;;;13.00;11.67;;;;;6.77;91.95;98992.31;6312973;20;2790896;-59
2022/04/06 00:22:40;;;;;;;;;19.00;14.00;;;;;6.76;91.99;99006.56;6316148;20;2802450;-59
2022/04/06 00:25:09;;;;;;;;;14.50;11.50;;;;;6.96;91.24;98996.59;6315962;20;2790042;-58
2022/04/06 00:27:37;;;;;;;;;12.33;12.33;;;;;7.19;91.22;98998.78;6285010;20;2791979;-59
2022/04/06 00:30:07;;;;;;;;;17.33;13.33;;;;;6.90;92.50;98996.91;6314490;20;3530454;-59
2022/04/06 00:32:35;;;;;;;;;15.33;15.33;;;;;7.26;91.31;99005.44;6314639;20;3550643;-59
2022/04/06 00:37:51;;;;;;;;;14.00;12.50;;;;;7.22;91.27;98995.91;6317051;20;2790444;-59
2022/04/06 00:40:22;;;;;;;;;19.00;17.33;;;;;6.87;92.36;98992.63;6283376;20;3564929;-59
2022/04/06 00:42:53;;;;;;;;;15.00;14.00;;;;;7.09;92.02;98991.41;6319566;20;2798231;-58
2022/04/06 00:45:23;;;;;;;;;23.00;17.00;;;;;7.09;92.05;98992.25;6283530;20;3555480;-58
2022/04/06 00:47:53;;;;;;;;;18.00;13.00;;;;;7.37;91.90;98991.50;6282002;20;3545358;-59
2022/04/06 00:50:25;;;;;;;;;21.00;19.00;;;;;7.30;91.47;98995.47;6311150;20;3550219;-59
2022/04/06 00:52:57;;;;;;;;;21.50;18.00;;;;;7.46;90.69;98995.41;6280871;20;2827356;-59
2022/04/06 00:55:35;;;;;;;;;20.33;18.00;;;;;7.30;91.29;99005.28;6280321;20;3557527;-59
2022/04/06 00:58:05;;;;;;;;;24.50;21.00;;;;;7.51;91.01;99012.03;6314023;20;2491936;-59
2022/04/06 01:00:34;;;;;;;;;22.33;20.00;;;;;7.35;91.50;99004.06;6279651;20;3556932;-59
2022/04/06 01:03:02;;;;;;;;;23.00;20.00;;;;;7.54;90.42;99011.84;6281771;20;2500454;-59
2022/04/06 01:05:30;;;;;;;;;23.00;20.50;;;;;7.45;91.31;99012.38;6284544;20;2833687;-59
2022/04/06 01:08:01;;;;;;;;;25.50;22.00;;;;;7.22;91.89;99011.94;6278482;20;2498206;-59
2022/04/06 01:10:29;;;;;;;;;26.00;20.50;;;;;7.38;91.00;99006.53;6279339;20;2656553;-60
2022/04/06 01:12:59;;;;;;;;;23.33;22.33;;;;;7.27;91.33;99006.34;6282634;20;3573168;-59
2022/04/06 01:15:28;;;;;;;;;24.50;21.50;;;;;7.15;91.97;99005.22;6282440;20;2833571;-59
2022/04/06 01:17:55;;;;;;;;;25.00;21.00;;;;;7.19;91.63;99004.13;6280361;20;2837739;-59
2022/04/06 01:20:23;;;;;;;;;23.00;22.00;;;;;6.90;92.91;98999.59;6281795;20;2828396;-59
2022/04/06 01:22:52;;;;;;;;;23.00;20.67;;;;;7.20;92.33;99002.28;6282422;20;3555534;-58
2022/04/06 01:25:22;;;;;;;;;51.67;35.00;;;;;7.04;92.73;99000.50;6280023;20;3635837;-59
2022/04/06 01:27:51;;;;;;;;;58.67;45.67;;;;;7.09;92.42;98994.91;6314337;20;2864953;-59
2022/04/06 01:30:20;;;;;;;;;21.00;21.00;;;;;7.11;92.85;99000.16;6314103;20;2500284;-56
2022/04/06 01:32:48;;;;;;;;;29.50;23.50;;;;;6.95;93.40;99001.06;6280595;20;2500320;-59
2022/04/06 01:35:17;;;;;;;;;19.50;19.00;;;;;6.75;94.61;98996.00;6281900;20;2500245;-59
2022/04/06 01:37:46;;;;;;;;;23.33;21.67;;;;;6.82;94.63;98992.91;6280599;20;3565038;-58
2022/04/06 01:40:13;;;;;;;;;26.50;23.00;;;;;6.98;94.52;98990.22;6310800;20;2500326;-59
2022/04/06 01:42:42;;;;;;;;;23.00;20.67;;;;;7.20;93.21;99000.47;6284460;20;3564820;-58
2022/04/06 01:45:10;;;;;;;;;25.50;21.00;;;;;7.36;92.66;98991.56;6275945;20;2500285;-59
2022/04/06 01:47:39;;;;;;;;;21.00;19.67;;;;;7.18;93.04;98996.19;6279843;20;3574235;-58
2022/04/06 01:52:56;;;;;;;;;23.00;17.00;;;;;7.01;92.63;98986.50;6278271;20;3560673;-58
2022/04/06 01:55:24;;;;;;;;;18.00;17.50;;;;;7.08;92.89;98993.19;6284072;20;2822155;-60
2022/04/06 01:57:52;;;;;;;;;29.33;21.67;;;;;6.97;92.73;98993.81;6282700;20;3597106;-61
2022/04/06 02:00:20;;;;;;;;;15.50;14.50;;;;;6.79;93.94;98995.75;6282124;20;2805605;-61
2022/04/06 02:02:52;;;;;;;;;18.00;17.00;;;;;7.12;92.83;98997.41;6283688;20;2825253;-61
2022/04/06 02:05:22;;;;;;;;;20.67;18.00;;;;;6.82;92.98;98984.91;6279583;20;3561851;-61
2022/04/06 02:07:50;;;;;;;;;20.00;19.00;;;;;6.94;93.41;98985.97;6308070;20;2491978;-61
2022/04/06 02:10:19;;;;;;;;;18.00;16.33;;;;;7.02;92.98;98986.41;6278493;20;3548459;-60
2022/04/06 02:12:49;;;;;;;;;17.33;14.00;;;;;6.99;92.95;98985.72;6310992;20;3541051;-61
2022/04/06 02:15:17;;;;;;;;;20.00;16.50;;;;;6.73;92.97;98993.41;6312005;20;2819090;-61
2022/04/06 02:17:48;;;;;;;;;17.33;15.33;;;;;6.69;94.08;98981.22;6280759;20;3559604;-61
2022/04/06 02:20:17;;;;;;;;;23.67;17.33;;;;;6.86;93.16;98987.38;6307237;20;3559621;-61
2022/04/06 02:22:50;;;;;;;;;20.33;17.67;;;;;6.54;92.94;98980.25;6281752;20;3562754;-60
2022/04/06 02:25:18;;;;;;;;;16.50;16.50;;;;;6.46;94.68;98976.31;6314050;20;2823296;-61
2022/04/06 02:27:53;;;;;;;;;22.00;20.50;;;;;6.49;93.92;98981.47;6283269;20;2835751;-61
2022/04/06 02:30:21;;;;;;;;;25.50;19.50;;;;;5.96;95.43;98987.97;6280354;20;2828413;-61
2022/04/06 02:32:50;;;;;;;;;24.00;23.00;;;;;6.07;95.56;98985.56;6281126;20;2827395;-61
2022/04/06 02:35:18;;;;;;;;;20.50;20.50;;;;;5.90;95.96;98976.66;6285809;20;2820033;-61
2022/04/06 02:37:46;;;;;;;;;20.50;20.50;;;;;6.14;94.78;98976.31;6277524;20;2500340;-60
2022/04/06 02:40:16;;;;;;;;;27.67;21.33;;;;;6.02;94.99;98974.31;6277230;20;3567978;-61
2022/04/06 02:42:45;;;;;;;;;23.00;20.00;;;;;5.96;95.59;98971.97;6277926;20;2500353;-61
2022/04/06 02:45:13;;;;;;;;;24.50;23.00;;;;;5.70;96.58;98976.84;6283345;20;2827326;-61
2022/04/06 02:47:46;;;;;;;;;21.50;19.50;;;;;5.98;96.80;98980.72;6281264;20;2500262;-61
2022/04/06 02:50:15;;;;;;;;;22.00;19.33;;;;;6.01;96.52;98976.09;6278077;20;3558558;-61
2022/04/06 02:52:43;;;;;;;;;23.50;20.00;;;;;5.75;96.76;98982.81;6279764;20;2822120;-61
2022/04/06 02:55:12;;;;;;;;;19.67;16.67;;;;;5.64;96.48;98985.19;6276678;20;3563822;-61
2022/04/06 02:57:42;;;;;;;;;24.50;22.00;;;;;5.70;97.73;98988.38;6311963;20;2500253;-61
2022/04/06 03:00:14;;;;;;;;;27.50;22.00;;;;;5.90;96.97;98987.31;6277694;20;2844215;-61
2022/04/06 03:02:44;;;;;;;;;29.50;24.00;;;;;5.71;97.19;98986.56;6277120;20;2500281;-61
2022/04/06 03:05:13;;;;;;;;;20.67;19.33;;;;;5.57;98.27;98975.78;6280790;20;3547140;-62
2022/04/06 03:07:41;;;;;;;;;23.00;20.00;;;;;5.44;98.00;98989.72;6308379;20;2500259;-61
2022/04/06 03:10:09;;;;;;;;;26.00;22.00;;;;;5.67;98.16;98987.69;6275139;20;2500297;-61
2022/04/06 03:12:37;;;;;;;;;26.00;22.00;;;;;5.52;97.61;98983.16;6280144;20;2496093;-61
2022/04/06 03:15:06;;;;;;;;;25.50;25.50;;;;;5.18;99.03;98979.56;6279780;20;2496086;-61
2022/04/06 03:17:35;;;;;;;;;27.00;22.00;;;;;5.18;99.89;98990.22;6280150;20;2500293;-61
2022/04/06 03:20:06;;;;;;;;;31.00;22.67;;;;;5.35;99.64;98992.03;6284523;20;3581475;-60
2022/04/06 03:22:34;;;;;;;;;26.50;24.00;;;;;5.39;99.71;98993.56;6284079;20;2838785;-61
2022/04/06 03:25:04;;;;;;;;;29.33;23.00;;;;;5.06;100.00;98981.91;6283273;20;3570154;-61
2022/04/06 03:27:33;;;;;;;;;33.00;29.00;;;;;5.22;100.00;98986.47;6283898;20;2500254;-60
2022/04/06 03:30:12;;;;;;;;;24.00;24.00;;;;;5.27;99.61;98984.44;6284938;20;2852328;-61
2022/04/06 03:32:42;;;;;;;;;29.00;25.50;;;;;4.93;100.00;98986.13;6286620;20;2854513;-61
2022/04/06 03:35:10;;;;;;;;;34.00;28.50;;;;;4.93;100.00;98986.13;6283838;20;2500387;-61
2022/04/06 03:37:39;;;;;;;;;32.50;23.00;;;;;4.90;100.00;98994.28;6285529;20;2860875;-60
2022/04/06 03:40:08;;;;;;;;;32.00;26.00;;;;;4.80;100.00;98999.16;6275267;20;2500466;-61
2022/04/06 03:42:37;;;;;;;;;24.50;24.50;;;;;4.90;99.95;98990.72;6282850;20;2842063;-60
2022/04/06 03:45:06;;;;;;;;;22.50;19.50;;;;;5.04;99.59;98994.44;6284276;20;2500265;-61
2022/04/06 03:47:38;;;;;;;;;29.00;25.50;;;;;4.88;99.19;98987.31;6282710;20;2500360;-61
2022/04/06 03:50:08;;;;;;;;;30.00;22.50;;;;;4.67;98.89;98983.91;6280923;20;2848338;-61
2022/04/06 03:52:36;;;;;;;;;29.50;24.50;;;;;4.69;99.45;98998.84;6282935;20;2500272;-61
2022/04/06 03:55:07;;;;;;;;;26.67;22.00;;;;;4.62;99.11;98997.41;6284693;20;3560659;-61
2022/04/06 03:57:38;;;;;;;;;33.50;22.00;;;;;4.51;99.63;98995.28;6282241;20;2851328;-62
2022/04/06 04:00:09;;;;;;;;;32.50;29.00;;;;;4.38;99.65;98988.81;6282171;20;2856646;-61
2022/04/06 04:02:37;;;;;;;;;26.50;23.50;;;;;4.66;99.75;98987.47;6277097;20;2500330;-61
2022/04/06 04:05:06;;;;;;;;;29.50;25.00;;;;;4.40;100.00;98984.28;6281521;20;2500392;-61
2022/04/06 04:07:37;;;;;;;;;31.00;26.00;;;;;4.60;99.99;98978.84;6283945;20;2857714;-61
2022/04/06 04:10:10;;;;;;;;;30.00;28.00;;;;;4.42;100.00;98984.22;6279700;20;2500370;-61
2022/04/06 04:12:39;;;;;;;;;25.00;24.00;;;;;4.61;99.70;98987.72;6280738;20;2500292;-61
2022/04/06 04:15:08;;;;;;;;;26.00;25.50;;;;;4.27;100.00;98991.97;6285683;20;2841961;-61
2022/04/06 04:17:37;;;;;;;;;26.00;19.67;;;;;4.46;99.99;98989.31;6285885;20;3559586;-61
2022/04/06 04:20:07;;;;;;;;;23.50;22.00;;;;;4.55;99.20;99003.94;6284582;20;2833599;-54
2022/04/06 04:22:36;;;;;;;;;25.00;22.67;;;;;4.68;99.77;99006.88;6286414;20;3576253;-52
2022/04/06 04:25:06;;;;;;;;;33.50;23.00;;;;;5.23;99.98;99009.47;6289769;20;2845122;-54
2022/04/06 04:27:35;;;;;;;;;28.33;27.00;;;;;5.30;98.95;99000.25;6284310;20;3576285;-54
2022/04/06 04:30:06;;;;;;;;;39.00;32.50;;;;;5.53;99.49;99009.72;6287293;20;2854534;-53
2022/04/06 04:32:36;;;;;;;;;35.00;30.50;;;;;5.78;98.70;99017.25;6283653;20;2855583;-53
2022/04/06 04:35:06;;;;;;;;;30.00;27.00;;;;;6.03;97.92;99021.31;6285899;20;2854435;-52
2022/04/06 04:37:36;;;;;;;;;26.00;19.00;;;;;6.02;97.77;99024.94;6286153;20;2500290;-50
2022/04/06 04:40:06;;;;;;;;;32.00;23.00;;;;;5.83;98.98;99030.34;6281923;20;2856535;-52
2022/04/06 04:42:34;;;;;;;;;22.00;22.00;;;;;6.00;98.95;99035.66;6284554;20;2500328;-52
2022/04/06 04:45:04;;;;;;;;;26.00;22.00;;;;;6.22;97.76;99032.72;6287168;20;2830547;-52
2022/04/06 04:47:32;;;;;;;;;29.00;26.00;;;;;6.30;96.97;99029.63;6284983;20;2500353;-53
2022/04/06 04:50:01;;;;;;;;;29.50;19.00;;;;;6.22;96.88;99026.53;6284317;20;2843010;-54
2022/04/06 04:52:29;;;;;;;;;26.50;23.00;;;;;6.50;97.28;99031.19;6286367;20;2500246;-54
2022/04/06 04:54:56;;;;;;;;;22.00;22.00;;;;;7.38;92.91;99033.25;6283996;20;2500316;-55
2022/04/06 04:57:25;;;;;;;;;30.00;23.00;;;;;7.94;90.05;99038.81;6287517;20;2846072;-53
2022/04/06 04:59:54;;;;;;;;;24.00;24.00;;;;;8.36;87.67;99034.41;6282831;20;2833971;-53
2022/04/06 05:02:23;;;;;;;;;25.00;23.00;;;;;7.93;88.58;99037.09;6285462;20;2718075;-53
2022/04/06 05:04:52;;;;;;;;;38.00;34.00;;;;;7.66;90.26;99048.50;6317333;20;2868088;-53
2022/04/06 05:07:21;;;;;;;;;14.33;14.33;;;;;7.84;90.07;99043.00;6318784;20;3534727;-55
2022/04/06 05:09:51;;;;;;;;;34.67;33.67;;;;;7.89;90.24;99046.25;6317623;20;2857647;-55
2022/04/06 05:12:20;;;;;;;;;38.00;31.67;;;;;8.08;90.16;99052.19;6319408;20;3613204;-54
2022/04/06 05:14:49;;;;;;;;;33.50;32.50;;;;;8.11;90.77;99052.00;6287506;20;2852312;-52
2022/04/06 05:17:19;;;;;;;;;36.33;33.67;;;;;8.06;90.54;99054.09;6282376;20;2869236;-54
2022/04/06 05:19:48;;;;;;;;;28.50;25.00;;;;;8.20;91.00;99061.25;6316703;20;2836720;-53
2022/04/06 05:22:16;;;;;;;;;31.00;23.00;;;;;8.43;90.89;99065.22;6284627;20;2859650;-52
2022/04/06 05:24:45;;;;;;;;;26.50;23.00;;;;;8.29;91.11;99071.41;6286515;20;2839885;-53
2022/04/06 05:27:13;;;;;;;;;22.00;22.00;;;;;8.06;92.79;99069.28;6293729;20;2660711;-51
2022/04/06 05:29:42;;;;;;;;;21.00;20.00;;;;;8.29;91.38;99070.53;6316359;20;2830512;-53
2022/04/06 05:32:10;;;;;;;;;21.00;18.50;;;;;8.49;91.19;99067.50;6283378;20;2500338;-53
2022/04/06 05:34:38;;;;;;;;;32.50;21.00;;;;;8.60;91.19;99071.31;6287338;20;2845109;-52
2022/04/06 05:37:07;;;;;;;;;21.67;20.00;;;;;8.66;90.57;99074.47;6284818;20;3571051;-54
2022/04/06 05:39:36;;;;;;;;;28.00;22.00;;;;;8.95;89.87;99080.63;6285484;20;2848161;-52
2022/04/06 05:42:04;;;;;;;;;30.00;21.50;;;;;8.95;89.81;99080.63;6280518;20;2500317;-55
2022/04/06 05:44:34;;;;;;;;;19.00;18.50;;;;;8.99;89.81;99082.13;6285374;20;2500270;-54
2022/04/06 05:47:02;;;;;;;;;21.00;18.00;;;;;9.08;89.13;99080.66;6284410;20;2500817;-54
2022/04/06 05:49:31;;;;;;;;;23.00;19.33;;;;;9.34;87.98;99076.28;6283236;20;3561711;-55
2022/04/06 05:51:59;;;;;;;;;25.00;24.00;;;;;9.18;89.00;99071.09;6284908;20;2841921;-53
2022/04/06 05:54:27;;;;;;;;;34.50;30.50;;;;;9.26;89.04;99078.63;6287547;20;2848285;-52
2022/04/06 05:56:56;;;;;;;;;27.50;24.00;;;;;9.17;90.01;99080.09;6285580;20;2840028;-53
2022/04/06 05:59:25;;;;;;;;;26.00;25.00;;;;;9.53;88.06;99080.41;6283356;20;2851300;-54
2022/04/06 06:01:53;;;;;;;;;25.00;21.00;;;;;9.41;87.91;99082.09;6285429;20;2825307;-53
2022/04/06 06:04:21;;;;;;;;;24.00;22.00;;;;;9.67;87.74;99078.53;6283901;20;2496123;-52
2022/04/06 06:06:50;;;;;;;;;29.00;20.50;;;;;9.78;86.44;99091.22;6285257;20;2849321;-54
2022/04/06 06:09:19;;;;;;;;;22.50;22.00;;;;;9.62;86.96;99085.16;6284568;20;2833592;-52
2022/04/06 06:11:48;;;;;;;;;26.50;24.50;;;;;9.86;86.39;99098.72;6281044;20;2840869;-54
2022/04/06 06:14:17;;;;;;;;;34.00;27.67;;;;;9.81;86.65;99090.16;6285480;20;2858590;-53
2022/04/06 06:16:46;;;;;;;;;26.50;25.00;;;;;9.98;85.77;99091.66;6316893;20;2848156;-53
2022/04/06 06:19:17;;;;;;;;;34.33;27.67;;;;;9.87;87.18;99098.63;6283532;20;2858581;-53
2022/04/06 06:21:45;;;;;;;;;32.67;25.67;;;;;9.92;86.55;99097.44;6318695;20;3592269;-52
2022/04/06 06:24:15;;;;;;;;;32.67;29.33;;;;;9.47;87.91;99091.56;6282568;20;2852343;-53
2022/04/06 06:26:44;;;;;;;;;36.00;32.00;;;;;10.09;85.45;99099.84;6317739;20;3614849;-52
2022/04/06 06:29:13;;;;;;;;;31.67;27.33;;;;;10.25;85.28;99095.13;6284166;20;2847234;-54
2022/04/06 06:31:43;;;;;;;;;31.67;28.00;;;;;10.40;85.08;99095.03;6315171;20;2850467;-54
2022/04/06 06:34:13;;;;;;;;;30.00;28.00;;;;;10.44;85.66;99104.59;6316505;20;2847196;-55
2022/04/06 06:36:43;;;;;;;;;25.00;21.50;;;;;10.43;85.01;99108.28;6317074;20;2845176;-52
2022/04/06 06:39:10;;;;;;;;;20.00;20.00;;;;;10.95;83.66;99101.84;6282693;20;2492454;-54
2022/04/06 06:41:41;;;;;;;;;26.00;23.00;;;;;10.64;83.63;99092.47;6283894;20;2848253;-53
2022/04/06 06:44:10;;;;;;;;;22.50;20.00;;;;;10.61;83.08;99112.34;6282822;20;2498159;-55
2022/04/06 06:46:38;;;;;;;;;24.50;21.00;;;;;11.01;84.20;99109.47;6283106;20;2839859;-53
2022/04/06 06:49:07;;;;;;;;;22.00;18.00;;;;;11.40;82.39;99119.13;6282638;20;2500270;-51
2022/04/06 06:51:35;;;;;;;;;17.33;16.67;;;;;11.33;82.18;99109.78;6289109;20;2821110;-52
2022/04/06 06:54:04;;;;;;;;;12.00;12.00;;;;;11.48;81.16;99113.19;6321819;20;2788911;-49
2022/04/06 06:56:34;;;;;;;;;12.60;12.60;;;;;11.76;79.28;99111.09;6341223;20;2802342;-52
2022/04/06 06:59:03;;;;;;;;;11.00;11.00;;;;;11.73;78.25;99114.00;6315966;20;2775318;-52
2022/04/06 07:01:33;;;;;;;;;13.00;12.20;;;;;11.71;78.49;99107.88;6315661;20;2792039;-54
2022/04/06 07:04:01;;;;;;;;;11.50;11.50;;;;;12.02;77.07;99107.28;6291683;20;2781589;-53
2022/04/06 07:06:30;;;;;;;;;13.67;13.67;;;;;12.05;77.30;99111.59;6290706;20;3532522;-53
2022/04/06 07:08:59;;;;;;;;;11.80;11.80;;;;;11.78;78.59;99119.91;6346709;20;2793987;-53
2022/04/06 07:11:28;;;;;;;;;11.33;10.67;;;;;12.30;76.35;99121.31;6290336;20;2792149;-53
2022/04/06 07:13:56;;;;;;;;;12.00;10.50;;;;;12.55;74.89;99114.00;6323857;20;2791905;-54
2022/04/06 07:16:23;;;;;;;;;14.00;12.00;;;;;12.48;75.53;99110.94;6290603;20;2794647;-53
2022/04/06 07:18:51;;;;;;;;;13.50;13.00;;;;;13.58;71.78;99114.66;6288472;20;2792989;-56
2022/04/06 07:21:20;;;;;;;;;13.00;12.00;;;;;13.84;71.88;99121.41;6288910;20;3516008;-56
2022/04/06 07:23:49;;;;;;;;;9.33;9.00;;;;;14.27;69.10;99117.78;6316708;20;2751348;-54
2022/04/06 07:26:17;;;;;;;;;10.00;10.00;;;;;17.09;60.35;99120.00;6319965;20;2778844;-55
2022/04/06 07:28:46;;;;;;;;;8.80;8.80;;;;;15.86;62.85;99118.09;6314081;20;2759612;-53
2022/04/06 07:31:15;;;;;;;;;9.50;9.00;;;;;15.74;62.76;99125.47;6289385;20;2758617;-55
2022/04/06 07:33:43;;;;;;;;;9.00;9.00;;;;;15.32;64.21;99124.81;6289267;20;2756554;-53
2022/04/06 07:36:13;;;;;;;;;13.67;11.00;;;;;14.92;64.03;99114.88;6290608;20;2791935;-56
2022/04/06 07:38:41;;;;;;;;;11.50;11.50;;;;;14.88;63.65;99121.56;6324089;20;2788876;-56
2022/04/06 07:41:10;;;;;;;;;11.00;9.67;;;;;15.42;63.30;99114.88;6289989;20;2773175;-51
2022/04/06 07:43:37;;;;;;;;;11.00;11.00;;;;;15.68;60.72;99119.75;6324668;20;2796068;-52
2022/04/06 07:46:07;;;;;;;;;11.00;10.00;;;;;15.91;60.69;99114.97;6290582;20;2790923;-55
2022/04/06 07:48:36;;;;;;;;;13.50;11.00;;;;;16.12;60.28;99115.66;6292140;20;2791946;-55
2022/04/06 07:51:05;;;;;;;;;10.67;9.00;;;;;16.12;59.79;99117.53;6288888;20;2773226;-56
2022/04/06 07:53:34;;;;;;;;;7.60;7.00;;;;;16.22;59.90;99121.94;6340749;20;2748206;-57
2022/04/06 07:56:05;;;;;;;;;11.00;11.00;;;;;16.46;58.20;99116.03;6287855;20;3513809;-55
2022/04/06 07:58:34;;;;;;;;;11.00;9.50;;;;;16.68;57.05;99122.09;6324178;20;2773287;-54
2022/04/06 08:01:07;;;;;;;;;12.80;10.80;;;;;16.10;57.40;99123.06;6313827;20;2798204;-52
2022/04/06 08:03:36;;;;;;;;;14.50;11.50;;;;;15.66;59.14;99128.00;6291627;20;2798185;-53
2022/04/06 08:06:05;;;;;;;;;14.00;12.00;;;;;16.46;56.12;99116.03;6289793;20;2793080;-53
2022/04/06 08:08:34;;;;;;;;;10.33;10.33;;;;;16.60;56.76;99122.00;6319482;20;3512773;-51
2022/04/06 08:11:05;;;;;;;;;12.33;12.33;;;;;16.58;56.68;99118.56;6320447;20;3520041;-52
2022/04/06 08:13:33;;;;;;;;;12.00;10.00;;;;;16.96;54.79;99112.19;6321645;20;2779507;-53
2022/04/06 08:16:02;;;;;;;;;10.00;10.00;;;;;17.50;54.69;99115.91;6287475;20;2789953;-55
2022/04/06 08:18:30;;;;;;;;;15.00;13.00;;;;;16.68;55.71;99124.81;6323599;20;2804413;-51
2022/04/06 08:20:59;;;;;;;;;14.67;13.00;;;;;17.17;55.93;99127.34;6318677;20;3532505;-54
2022/04/06 08:23:28;;;;;;;;;13.00;10.00;;;;;17.07;55.66;99124.72;6319475;20;2791931;-54
2022/04/06 08:25:58;;;;;;;;;15.17;11.33;;;;;17.41;54.84;99132.25;6343020;20;2806522;-54
2022/04/06 08:28:27;;;;;;;;;13.67;13.67;;;;;17.54;54.64;99121.88;6318985;20;3528463;-55
2022/04/06 08:30:54;;;;;;;;;12.00;12.00;;;;;17.14;55.20;99125.84;6288810;20;2800320;-54
2022/04/06 08:33:23;;;;;;;;;12.33;12.33;;;;;17.65;54.62;99135.25;6288140;20;3523251;-53
2022/04/06 08:35:54;;;;;;;;;13.50;12.00;;;;;17.63;53.37;99126.38;6325124;20;2783633;-56
2022/04/06 08:38:22;;;;;;;;;15.00;14.00;;;;;17.62;54.25;99126.56;6291372;20;2798160;-54
2022/04/06 08:40:51;;;;;;;;;15.00;12.33;;;;;18.21;53.22;99128.66;6288496;20;3529497;-53
2022/04/06 08:43:21;;;;;;;;;13.00;12.00;;;;;18.11;52.92;99127.03;6317150;20;3518001;-51
2022/04/06 08:45:51;;;;;;;;;13.00;13.00;;;;;18.30;52.42;99123.28;6320988;20;2808573;-54
2022/04/06 08:48:21;;;;;;;;;14.00;12.67;;;;;18.40;52.38;99124.06;6319445;20;3507605;-53
2022/04/06 08:50:51;;;;;;;;;15.33;12.00;;;;;18.10;51.51;99123.47;6314096;20;2781511;-54
2022/04/06 08:53:20;;;;;;;;;11.67;10.67;;;;;18.45;51.47;99127.16;6314657;20;3514826;-59
2022/04/06 08:55:51;;;;;;;;;15.00;11.60;;;;;18.42;50.75;99122.03;6340798;20;2795031;-53
2022/04/06 08:58:19;;;;;;;;;9.00;9.00;;;;;19.11;49.33;99119.41;6296316;20;2749322;-53
2022/04/06 09:00:46;;;;;;;;;9.50;9.50;;;;;18.40;50.06;99116.78;6289759;20;2758612;-54
2022/04/06 09:03:17;;;;;;;;;7.00;7.00;;;;;18.34;50.28;99117.38;6314361;20;2732541;-55
2022/04/06 09:06:00;;;;;;;;;8.80;7.60;;;;;18.60;49.78;99114.69;6342426;20;2732583;-54
2022/04/06 09:08:45;;;;;;;;;9.60;6.60;;;;;18.23;50.16;99112.22;6345312;20;2758602;-53
2022/04/06 09:11:20;;;;;;;;;7.00;7.00;;;;;18.60;49.58;99114.69;6315625;20;2742985;-51
2022/04/06 09:14:02;;;;;;;;;7.20;6.20;;;;;18.60;49.61;99111.13;6340930;20;2744510;-54
2022/04/06 09:16:32;;;;;;;;;7.00;7.00;;;;;18.91;48.70;99116.97;6318746;20;2742951;-54
2022/04/06 09:19:13;;;;;;;;;9.00;9.00;;;;;19.14;48.12;99110.94;6319535;20;2736712;-55
2022/04/06 09:21:46;;;;;;;;;8.00;7.00;;;;;18.94;49.07;99111.19;6290891;20;2760736;-53
2022/04/06 09:24:20;;;;;;;;;8.00;8.00;;;;;19.57;47.97;99115.34;6290155;20;2750771;-55
2022/04/06 09:27:00;;;;;;;;;10.00;10.00;;;;;19.27;48.48;99109.47;6318027;20;2785888;-49
2022/04/06 09:29:30;;;;;;;;;10.50;9.50;;;;;19.36;48.27;99113.06;6315325;20;2772201;-49
2022/04/06 09:32:08;;;;;;;;;8.00;8.00;;;;;18.93;48.68;99111.34;6320112;20;2751111;-55
2022/04/06 09:34:58;;;;;;;;;8.40;7.80;;;;;19.28;47.63;99113.03;6345531;20;2734634;-55
2022/04/06 09:37:32;;;;;;;;;9.50;9.50;;;;;19.51;46.74;99108.69;6342509;20;1857581;-55
2022/04/06 09:40:09;;;;;;;;;10.67;10.67;;;;;19.02;47.76;99100.34;6282605;20;2794197;-54
2022/04/06 09:42:37;;;;;;;;;12.00;9.33;;;;;19.18;48.37;99098.72;6314874;20;3492957;-54
2022/04/06 09:47:58;;;;;;;;;10.33;10.00;;;;;19.69;46.40;99085.94;6318126;20;2794243;-55
2022/04/06 09:50:27;;;;;;;;;13.33;10.00;;;;;19.72;46.42;99088.31;6313756;20;3526268;-51
2022/04/06 09:52:57;;;;;;;;;9.80;9.80;;;;;19.20;46.30;99080.34;6342290;20;2794051;-55
2022/04/06 09:55:26;;;;;;;;;12.00;10.67;;;;;20.08;45.60;99083.41;6285470;20;3512777;-53
2022/04/06 09:57:58;;;;;;;;;12.67;12.00;;;;;19.95;45.75;99073.03;6317319;20;3502351;-54
2022/04/06 10:00:30;;;;;;;;;12.00;12.00;;;;;20.52;45.17;99068.56;6315009;20;3511693;-53
2022/04/06 10:03:07;;;;;;;;;12.67;11.00;;;;;19.67;46.69;99064.34;6314386;20;3517946;-55
2022/04/06 10:05:40;;;;;;;;;15.00;14.00;;;;;20.29;45.75;99072.00;6318155;20;2807985;-56
2022/04/06 10:08:11;;;;;;;;;9.67;9.67;;;;;19.76;46.89;99067.91;6322298;20;2768009;-55
2022/04/06 10:10:41;;;;;;;;;11.00;11.00;;;;;20.09;46.73;99052.44;6314602;20;3515866;-53
2022/04/06 10:13:10;;;;;;;;;15.33;15.00;;;;;20.16;45.32;99047.13;6283710;20;2491924;-54
2022/04/06 10:15:59;;;;;;;;;13.00;13.00;;;;;20.00;44.58;99038.97;6315130;20;2786042;-53
2022/04/06 10:18:33;;;;;;;;;10.00;10.00;;;;;20.28;44.86;99039.47;6316711;20;2788884;-53
2022/04/06 10:21:28;;;;;;;;;13.67;12.33;;;;;20.43;44.15;99037.72;6312650;20;3514945;-54
2022/04/06 10:24:36;;;;;;;;;14.00;13.67;;;;;20.77;43.56;99031.19;6323959;20;2786742;-52
2022/04/06 10:27:31;;;;;;;;;16.00;13.67;;;;;20.49;43.96;99037.03;6313818;20;3544014;-52
2022/04/06 10:30:11;;;;;;;;;14.33;14.33;;;;;19.98;44.12;99027.38;6280739;20;3529375;-52
2022/04/06 10:32:46;;;;;;;;;12.00;11.00;;;;;20.29;43.20;99030.25;6281987;20;3514945;-53
2022/04/06 10:35:35;;;;;;;;;17.00;15.00;;;;;20.51;43.66;99031.41;6284970;20;3533693;-56
2022/04/06 10:38:04;;;;;;;;;14.67;13.00;;;;;20.52;42.78;99030.38;6316316;20;2485726;-54
2022/04/06 10:40:54;;;;;;;;;12.67;12.67;;;;;21.10;43.02;99015.53;6316241;20;3525324;-54
2022/04/06 10:43:40;;;;;;;;;11.00;11.00;;;;;21.31;42.60;99019.50;6317027;20;3510694;-51
2022/04/06 10:46:14;;;;;;;;;14.00;11.00;;;;;20.68;42.68;99019.47;6316157;20;3513796;-53
2022/04/06 10:49:08;;;;;;;;;14.33;11.67;;;;;20.77;41.90;99012.97;6311703;20;3514869;-51
2022/04/06 10:51:46;;;;;;;;;14.67;14.00;;;;;20.90;40.92;99008.78;6320045;20;2795065;-54
2022/04/06 10:54:14;;;;;;;;;10.33;10.33;;;;;20.59;41.74;98999.53;6320172;20;2783570;-51
2022/04/06 10:56:46;;;;;;;;;8.60;8.40;;;;;20.85;41.76;98994.81;6341450;20;2766939;-55
2022/04/06 10:59:23;;;;;;;;;6.00;4.33;;;;;20.79;40.39;98988.22;6289141;20;2754563;-53
2022/04/06 11:02:24;;;;;;;;;5.20;5.00;;;;;21.07;40.88;99001.41;6341592;20;2734627;-50
2022/04/06 11:04:54;;;;;;;;;6.00;6.00;;;;;21.68;39.92;98999.66;6342042;20;2742990;-55
2022/04/06 11:10:25;;;;;;;;;7.00;7.00;;;;;21.75;39.82;98980.63;6339863;20;2734719;-54
2022/04/06 11:13:06;;;;;;;;;4.40;3.40;;;;;21.85;39.84;98983.97;6341634;20;2736836;-50
2022/04/06 11:15:41;;;;;;;;;6.50;3.75;;;;;21.35;39.10;98982.59;6342923;20;2629461;-51
2022/04/06 11:18:48;;;;;;;;;6.00;5.40;;;;;21.12;40.62;98977.13;6340166;20;2742052;-50
2022/04/06 11:21:18;;;;;;;;;7.80;7.80;;;;;21.05;39.93;98977.00;6340856;20;2731546;-53
2022/04/06 11:23:49;;;;;;;;;8.40;7.20;;;;;21.62;39.10;98963.00;6310345;20;2737748;-54
2022/04/06 11:26:18;;;;;;;;;11.80;8.60;;;;;21.99;39.41;98966.75;6336456;20;2770060;-52
2022/04/06 11:28:58;;;;;;;;;8.60;6.80;;;;;22.54;39.87;98968.25;6310041;20;2733619;-55
2022/04/06 11:31:28;;;;;;;;;9.60;9.00;;;;;21.61;39.13;98961.28;6340347;20;2760689;-53
2022/04/06 11:33:57;;;;;;;;;6.00;6.00;;;;;21.92;38.42;98963.06;6307408;20;2746078;-52